Didsbury, United Kingdom
Current Conditions -  °F | °C
As of 7:50 AM on Friday 24 Oct 2014 (Local Time) from EGCC Reporting Station
Light Rain Light Rain  
Wind Chill: 52°   Ceiling: 2000
Heat Index: 52°   Visibility: 1.5mi
Dew Point: 52°   Wind: 3mph
Humidity: 100%   Direction: NA
Pressure: 29.88"   Gusts: NA
Location:  53.42°N, 2.23°W
Report Text: EGCC 240650Z VRB03KT 2500 -RADZ FEW001 SCT006 BKN020 11/11 Q1012 RERA TEMPO 6000 BKN006
Loading
Personal Weather Stations






























Interactive Weather Map
Tropical Storm Tracking
New forecast layout! Learn more

10-Day Weather Forecast

Advertisements
Track Severe Weather on mobile